Bei Facebook empfehlenBei Twitter postenGoogle plusPinterest

Das Wetter im Erzgebirge am 01.05.2015

Wetter und Klima am 01.05.2015 Holzhau im Erzgebirge (630m ü.NN)
Letzte gemessene Temperatur und Uhrzeit der Messung23:45:00 Uhr3.20 °C
Temperatur (Maximum / Höchstwert) und Uhrzeit der Messung17:00:00 Uhr13.40 °C
Temperatur (Minimum / Tiefstwert) und Uhrzeit der Messung23:00:002.90 °C
Errechneter Absolutwert der Temperaturschwankungen zwischen Tmin und Tmax des Tages10.50 K
Errechnete Tagesmitteltemperatur7.25729 °C
Gesamt - Niederschlag des Tages (in flüssiger Form)8.29 Liter / m²
Luftdruck (Maximum / Höchstwert) und Zeitpunkt der Messung00:15:00 Uhr1009.80 hPa
Luftdruck (Minimum / Tiefstwert) und Zeitpunkt der Messung18:45:00 Uhr1004.30 hPa
Errechneter Absolutwert der Luftdruckschwankungen des Tages5.50 hPa
Höchste gemessene Windgeschwindigkeit und Uhrzeit der Messung06:15:00 Uhr11.16 km/h
Errechnete Windhäufigkeit in Relation zu den Messwerten des Tages6.25000 %
Niedrigste Windkühle (Windchill) und Zeitpunkt der Messung06:15:00 Uhr2.50 °C
Taupunkt (Maximum / Höchstwert) und Uhrzeit der Messung11:00:00 Uhr5.40 °C
Taupunkt (Minimum / Tiefstwert) und Uhrzeit der Messung22:30:000.20 °C
Anzahl der automatisch eingelesenen Messwerte 96

Detaillierte Wetter- und Klima- Messwerte für den 01.05.2015 in Holzhau im Erzgebirge (630m ü.NN)
ZeitTemperaturLuftdruckRel. LuftfeuchteWindWindrichtungWindchillTaupunktNiederschlag l/m²
23:45:003.20 °C1005.20 hPa85.00 %0.90 °C8.29
23:30:003.20 °C1005.30 hPa86.00 %1.10 °C8.29
23:15:003.10 °C1005.30 hPa85.00 %0.80 °C8.29
23:00:002.90 °C1005.20 hPa84.00 %0.50 °C8.29
22:45:002.90 °C1005.10 hPa84.00 %0.50 °C8.29
22:30:003.00 °C1005.10 hPa82.00 %0.20 °C8.29
22:15:003.30 °C1005.10 hPa81.00 %0.40 °C8.29
22:00:003.80 °C1004.90 hPa79.00 %0.50 °C8.29
21:45:004.20 °C1004.80 hPa79.00 %0.90 °C8.29
21:30:004.90 °C1004.70 hPa76.00 %1.00 °C8.29
21:15:005.80 °C1004.80 hPa75.00 %1.70 °C8.29
21:00:006.40 °C1004.90 hPa72.00 %1.70 °C8.29
20:45:007.10 °C1004.80 hPa71.00 %2.20 °C8.29
20:30:007.60 °C1004.80 hPa69.00 %2.30 °C8.29
20:15:008.20 °C1004.80 hPa67.00 %2.40 °C8.29
20:00:008.60 °C1004.50 hPa66.00 %2.60 °C8.29
19:45:008.90 °C1004.70 hPa64.00 %2.50 °C8.29
19:30:009.30 °C1004.50 hPa63.00 %2.60 °C8.29
19:15:009.60 °C1004.60 hPa62.00 %2.70 °C8.29
19:00:009.90 °C1004.70 hPa60.00 %2.50 °C8.29
18:45:0010.30 °C1004.30 hPa60.00 %2.90 °C8.29
18:30:0010.50 °C1004.50 hPa59.00 %2.80 °C8.29
18:15:0010.80 °C1004.50 hPa58.00 %2.90 °C8.29
18:00:0011.10 °C1004.70 hPa56.00 %2.70 °C8.29
17:45:0011.80 °C1004.70 hPa55.00 %3.10 °C8.29
17:30:0012.40 °C1004.60 hPa55.00 %3.60 °C8.29
17:15:0012.90 °C1004.70 hPa53.00 %3.60 °C8.29
17:00:0013.40 °C1004.80 hPa53.00 %4.00 °C8.29
16:45:0013.40 °C1004.90 hPa53.00 %4.00 °C8.29
16:30:0012.90 °C1004.90 hPa54.00 %3.80 °C8.29
16:15:0012.90 °C1004.90 hPa54.00 %6.84 km/hSW12.60 °C3.80 °C8.29
16:00:0012.60 °C1004.80 hPa57.00 %4.30 °C8.29
15:45:0012.10 °C1005.20 hPa58.00 %4.10 °C8.29
15:30:0011.80 °C1005.40 hPa58.00 %3.80 °C8.29
15:15:0011.50 °C1005.30 hPa57.00 %3.30 °C8.29
15:00:0012.00 °C1005.40 hPa58.00 %4.00 °C8.29
14:45:0012.20 °C1005.50 hPa58.00 %4.20 °C8.29
14:30:0012.30 °C1005.60 hPa60.00 %4.80 °C8.29
14:15:0011.90 °C1005.90 hPa60.00 %4.40 °C8.29
14:00:0011.80 °C1005.80 hPa61.00 %4.50 °C8.29
13:45:0011.50 °C1005.90 hPa64.00 %4.90 °C8.29
13:30:0010.90 °C1006.10 hPa64.00 %4.40 °C8.29
13:15:0010.90 °C1006.20 hPa68.00 %5.20 °C8.29
13:00:0010.80 °C1006.20 hPa67.00 %4.90 °C8.29
12:45:0010.70 °C1006.10 hPa69.00 %5.30 °C8.29
12:30:0010.60 °C1006.20 hPa69.00 %5.20 °C8.29
12:15:009.90 °C1006.20 hPa72.00 %5.10 °C8.29
12:00:009.60 °C1006.30 hPa74.00 %6.48 km/hNNW8.90 °C5.20 °C8.29
11:45:009.00 °C1006.30 hPa77.00 %5.20 °C8.29
11:30:008.90 °C1006.40 hPa77.00 %5.10 °C8.29
11:15:008.10 °C1006.40 hPa81.00 %5.00 °C8.29
11:00:008.10 °C1006.40 hPa83.00 %5.40 °C8.29
10:45:007.10 °C1006.30 hPa86.00 %4.90 °C8.29
10:30:006.50 °C1006.40 hPa85.00 %6.48 km/hW5.30 °C4.20 °C8.29
10:15:006.30 °C1006.60 hPa87.00 %4.30 °C8.29
10:00:006.10 °C1006.60 hPa89.00 %4.40 °C8.29
09:45:005.50 °C1006.60 hPa91.00 %4.20 °C8.29
09:30:005.30 °C1006.40 hPa91.00 %4.00 °C8.29
09:15:004.40 °C1006.40 hPa91.00 %3.10 °C8.29
09:00:004.40 °C1006.60 hPa91.00 %3.10 °C8.29
08:45:004.20 °C1006.50 hPa91.00 %2.90 °C8.29
08:30:003.90 °C1006.40 hPa92.00 %2.70 °C8.29
08:15:003.70 °C1006.60 hPa91.00 %2.40 °C7.77
08:00:003.80 °C1006.50 hPa91.00 %2.50 °C7.25
07:45:003.90 °C1006.20 hPa91.00 %2.60 °C7.25
07:30:004.10 °C1006.10 hPa91.00 %2.80 °C7.25
07:15:004.10 °C1006.30 hPa91.00 %2.80 °C6.74
07:00:004.30 °C1006.30 hPa90.00 %2.80 °C6.74
06:45:004.50 °C1006.20 hPa90.00 %3.00 °C6.22
06:30:004.80 °C1006.20 hPa90.00 %3.30 °C5.70
06:15:005.10 °C1006.30 hPa90.00 %11.16 km/hSW2.50 °C3.60 °C5.18
06:00:005.20 °C1006.10 hPa90.00 %3.70 °C4.66
05:45:005.30 °C1006.20 hPa90.00 %3.80 °C4.66
05:30:005.30 °C1006.10 hPa90.00 %3.80 °C4.15
05:15:005.30 °C1006.30 hPa90.00 %3.80 °C4.15
05:00:005.30 °C1006.40 hPa90.00 %3.80 °C4.15
04:45:005.30 °C1006.00 hPa90.00 %3.80 °C4.15
04:30:005.20 °C1006.50 hPa90.00 %3.70 °C4.15
04:15:005.20 °C1006.70 hPa90.00 %3.70 °C4.15
04:00:005.20 °C1006.80 hPa90.00 %3.70 °C4.15
03:45:005.10 °C1007.10 hPa89.00 %4.68 km/hSW5.10 °C3.40 °C4.15
03:30:005.00 °C1007.30 hPa89.00 %3.30 °C4.15
03:15:004.90 °C1007.30 hPa89.00 %3.20 °C4.15
03:00:004.90 °C1007.40 hPa89.00 %3.20 °C4.15
02:45:004.90 °C1007.60 hPa89.00 %3.20 °C4.15
02:30:004.90 °C1007.70 hPa89.00 %3.20 °C4.15
02:15:004.90 °C1007.90 hPa89.00 %3.20 °C4.15
02:00:004.90 °C1008.20 hPa88.00 %3.10 °C4.15
01:45:004.90 °C1008.30 hPa88.00 %3.10 °C4.15
01:30:004.90 °C1008.60 hPa88.00 %3.10 °C3.63
01:15:005.00 °C1008.90 hPa88.00 %3.20 °C3.11
01:00:005.00 °C1009.10 hPa87.00 %3.00 °C2.07
00:45:005.10 °C1009.30 hPa87.00 %3.10 °C1.56
00:30:005.30 °C1009.40 hPa86.00 %3.20 °C1.56
00:15:005.90 °C1009.80 hPa86.00 %3.70 °C1.04
00:00:006.30 °C1009.50 hPa86.00 %7.56 km/hSW4.80 °C4.10 °C 

Permanenter Link zu dieser Seite: Wetter im Erzgebirge am 01.05.2015
Performance-Info: Die Erstellung der Seite / Statistik(en) / Tabelle(n) erforderte 5 Datenbankserver-Abfrage(n) und dauerte 101 Millisekunden. (Dieser Messwert ist von der Gesamt-Auslastung des Servers abhängig.)
Erzgebirge - Wetter | Erzgebirge - Wetter (Mobilgeräte) | Komplette Klimadatenbank